Time;durP1;ratioP1;P1;durP2;ratioP2;P2;SDS_P1;SDS_P2;PMS_P1;PMS_P2;Temp;Humidity;BMP_temperature;BMP_pressure;BME280_temperature;BME280_humidity;BME280_pressure;Samples;Min_cycle;Max_cycle;Signal;HPM_P1;HPM_P2
2023/09/19 00:00:12;;;;;;;2.00;1.20;;;;;;;20.73;58.58;98557.06;5149387;27;20049;-75
2023/09/19 00:02:39;;;;;;;2.45;1.20;;;;;;;20.75;59.46;98560.41;5148992;27;20039;-76
2023/09/19 00:05:07;;;;;;;1.95;1.10;;;;;;;20.62;58.99;98562.75;5150181;27;20070;-76
2023/09/19 00:07:36;;;;;;;1.20;0.90;;;;;;;20.67;59.08;98557.72;5149205;27;20199;-75
2023/09/19 00:10:04;;;;;;;3.20;1.20;;;;;;;19.81;59.56;98431.66;5149947;27;20057;-75
2023/09/19 00:12:31;;;;;;;2.53;1.30;;;;;;;20.65;60.23;98559.75;5149928;27;20084;-75
2023/09/19 00:15:00;;;;;;;1.85;1.10;;;;;;;20.67;60.68;98573.88;5131923;27;20114;-76
2023/09/19 00:17:31;;;;;;;1.75;1.10;;;;;;;20.60;61.63;98589.84;5149499;27;20091;-76
2023/09/19 00:19:58;;;;;;;1.35;1.02;;;;;;;19.81;61.59;98467.44;5149107;27;20098;-76
2023/09/19 00:22:26;;;;;;;2.22;1.27;;;;;;;20.43;62.19;98585.47;5149421;27;20100;-75
2023/09/19 00:24:53;;;;;;;3.83;1.33;;;;;;;20.53;62.29;98596.91;5149847;27;20051;-75
2023/09/19 00:27:20;;;;;;;1.92;1.00;;;;;;;20.18;62.50;98530.72;5148508;27;20299;-76
2023/09/19 00:29:46;;;;;;;2.35;1.20;;;;;;;20.33;63.52;98577.53;5149298;27;20084;-75
2023/09/19 00:32:13;;;;;;;1.42;1.08;;;;;;;20.25;64.19;98582.91;5148463;27;20055;-75
2023/09/19 00:34:42;;;;;;;3.08;1.30;;;;;;;20.24;64.88;98589.28;5149478;27;20042;-75
2023/09/19 00:37:11;;;;;;;3.38;1.67;;;;;;;20.15;64.54;98576.78;5148880;27;20113;-75
2023/09/19 00:39:38;;;;;;;2.00;1.10;;;;;;;20.28;64.11;98585.25;5148253;27;20050;-75
2023/09/19 00:42:05;;;;;;;2.05;1.15;;;;;;;20.16;63.99;98587.38;5149044;27;20047;-75
2023/09/19 00:44:34;;;;;;;2.28;1.25;;;;;;;20.17;64.33;98594.44;5149033;27;20050;-75
2023/09/19 00:47:02;;;;;;;2.40;1.27;;;;;;;20.18;63.72;98600.66;5149486;27;20039;-75
2023/09/19 00:49:30;;;;;;;1.77;1.17;;;;;;;20.26;63.36;98597.19;5148996;27;20070;-75
2023/09/19 00:51:59;;;;;;;2.05;1.15;;;;;;;20.07;64.07;98577.59;5149176;27;20054;-75
2023/09/19 00:54:28;;;;;;;1.80;1.20;;;;;;;20.18;64.08;98603.34;5148201;27;20053;-75
2023/09/19 00:56:54;;;;;;;2.13;1.40;;;;;;;20.10;64.60;98596.09;5149042;27;20136;-75
2023/09/19 00:59:22;;;;;;;2.03;1.10;;;;;;;20.11;64.40;98605.03;5147858;27;20084;-75
2023/09/19 01:01:53;;;;;;;1.48;1.10;;;;;;;20.01;64.26;98605.16;5148191;27;20245;-75
2023/09/19 01:04:20;;;;;;;2.58;1.33;;;;;;;20.04;64.70;98604.81;5149010;27;20039;-75
2023/09/19 01:06:47;;;;;;;1.73;1.08;;;;;;;20.08;64.62;98602.66;5148537;27;20043;-75
2023/09/19 01:09:15;;;;;;;2.00;1.30;;;;;;;19.50;64.95;98503.94;5148823;27;20051;-75
2023/09/19 01:11:46;;;;;;;1.00;0.90;;;;;;;20.05;64.63;98602.97;5147608;27;20348;-75
2023/09/19 01:14:32;;;;;;;1.67;1.05;;;;;;;20.05;65.64;98603.81;5148645;27;20043;-75
2023/09/19 01:17:10;;;;;;;1.92;1.20;;;;;;;19.94;64.97;98600.59;5148178;27;20057;-76
2023/09/19 01:20:25;;;;;;;1.73;1.10;;;;;;;20.00;64.93;98608.00;5148887;27;20054;-75
2023/09/19 01:23:05;;;;;;;2.58;1.30;;;;;;;19.84;65.15;98585.41;5085720;28;20074;-75
2023/09/19 01:26:08;;;;;;;2.17;1.35;;;;;;;19.97;64.78;98609.16;5069654;28;20049;-75
2023/09/19 01:28:47;;;;;;;1.55;1.05;;;;;;;19.84;65.22;98612.31;5134441;27;20245;-76
2023/09/19 01:31:15;;;;;;;1.60;1.10;;;;;;;19.85;65.37;98611.31;5147434;27;20062;-75
2023/09/19 01:33:59;;;;;;;2.70;1.30;;;;;;;19.63;65.38;98609.16;5148064;27;20298;-75
2023/09/19 01:36:27;;;;;;;2.08;1.27;;;;;;;19.66;66.09;98595.38;5147750;27;20055;-75
2023/09/19 01:38:55;;;;;;;2.22;1.23;;;;;;;19.59;66.41;98601.56;5148222;27;20039;-75
2023/09/19 01:41:30;;;;;;;2.15;1.40;;;;;;;19.46;66.46;98594.78;5148190;27;20054;-75
2023/09/19 01:44:00;;;;;;;1.88;1.15;;;;;;;19.49;66.56;98610.59;5147670;27;20043;-76
2023/09/19 01:46:36;;;;;;;1.65;1.20;;;;;;;19.18;67.14;98595.91;5147986;27;20062;-75
2023/09/19 01:49:20;;;;;;;2.15;1.20;;;;;;;18.79;67.05;98517.59;5147060;27;20054;-75
2023/09/19 01:51:57;;;;;;;2.10;1.52;;;;;;;19.30;66.78;98589.28;5147984;27;20077;-75
2023/09/19 01:54:29;;;;;;;1.95;1.38;;;;;;;19.11;67.25;98590.31;5147913;27;20122;-75
2023/09/19 01:57:05;;;;;;;1.75;1.13;;;;;;;19.05;67.21;98600.84;5147849;27;20043;-75
2023/09/19 01:59:40;;;;;;;2.42;1.60;;;;;;;18.93;67.61;98597.56;5147866;27;20348;-75
2023/09/19 02:02:10;;;;;;;2.75;1.20;;;;;;;18.90;67.96;98605.94;5146709;27;20088;-75
2023/09/19 02:04:37;;;;;;;4.30;1.33;;;;;;;18.38;69.68;98551.25;5148055;27;20047;-75
2023/09/19 02:07:05;;;;;;;2.83;1.40;;;;;;;18.56;70.36;98592.38;5147633;27;20039;-75
2023/09/19 02:09:35;;;;;;;3.83;1.50;;;;;;;18.56;70.20;98600.44;5147710;27;20038;-75
2023/09/19 02:12:01;;;;;;;4.18;1.63;;;;;;;18.64;69.62;98595.13;5146482;27;20204;-75
2023/09/19 02:14:29;;;;;;;2.03;1.20;;;;;;;18.72;69.64;98597.91;5129611;27;20224;-75
2023/09/19 02:16:56;;;;;;;4.93;1.90;;;;;;;18.58;70.06;98593.06;5147046;27;20051;-75
2023/09/19 02:19:24;;;;;;;3.50;1.67;;;;;;;18.68;69.46;98587.63;5146376;27;20049;-75
2023/09/19 02:21:52;;;;;;;2.10;1.40;;;;;;;18.71;69.60;98588.16;5147420;27;20092;-75
2023/09/19 02:24:19;;;;;;;2.42;1.40;;;;;;;18.82;68.78;98589.75;5146256;27;20121;-75
2023/09/19 02:26:46;;;;;;;2.00;1.00;;;;;;;18.89;69.14;98591.66;5147063;27;20039;-75
2023/09/19 02:29:12;;;;;;;3.28;1.30;;;;;;;18.89;69.37;98588.97;5147352;27;20295;-75
2023/09/19 02:31:39;;;;;;;3.95;1.30;;;;;;;18.66;71.18;98593.16;5147607;27;20058;-75
2023/09/19 02:34:09;;;;;;;2.08;1.15;;;;;;;18.76;71.06;98596.59;5147320;27;20309;-75
2023/09/19 02:36:37;;;;;;;2.08;1.40;;;;;;;18.70;71.14;98605.25;5146914;27;20035;-75
2023/09/19 02:39:05;;;;;;;2.40;1.58;;;;;;;18.78;69.70;98601.81;5147117;27;20076;-75
2023/09/19 02:41:33;;;;;;;1.42;1.10;;;;;;;18.76;69.42;98612.69;5146022;27;20039;-75
2023/09/19 02:44:01;;;;;;;2.00;1.10;;;;;;;18.80;69.81;98602.50;5147339;27;20043;-76
2023/09/19 02:46:28;;;;;;;2.63;1.00;;;;;;;18.75;70.40;98615.53;5146463;27;20307;-75
2023/09/19 02:48:55;;;;;;;2.28;1.10;;;;;;;18.71;69.96;98606.94;5147054;27;20039;-75
2023/09/19 02:51:22;;;;;;;1.63;1.10;;;;;;;18.58;71.52;98623.44;5145900;27;20079;-76
2023/09/19 02:53:52;;;;;;;2.97;1.25;;;;;;;18.69;70.98;98622.38;5146805;27;20051;-75
2023/09/19 02:56:19;;;;;;;2.70;1.13;;;;;;;18.78;70.38;98626.81;5146269;27;20049;-75
2023/09/19 02:58:46;;;;;;;3.22;1.40;;;;;;;18.89;70.29;98615.00;5146939;27;20035;-75
2023/09/19 03:01:12;;;;;;;2.10;1.30;;;;;;;18.89;69.49;98617.66;5147213;28;20053;-75
2023/09/19 03:03:39;;;;;;;1.80;1.17;;;;;;;18.82;70.68;98622.81;5146865;28;20043;-75
2023/09/19 03:06:08;;;;;;;2.75;1.35;;;;;;;18.92;70.16;98617.38;5146650;27;20102;-75
2023/09/19 03:08:36;;;;;;;3.13;1.30;;;;;;;18.79;69.95;98607.03;5146798;28;20088;-75
2023/09/19 03:11:07;;;;;;;2.00;1.20;;;;;;;18.84;70.29;98618.13;5146744;28;20043;-76
2023/09/19 03:13:36;;;;;;;1.75;1.17;;;;;;;18.92;69.76;98617.38;5146828;27;20050;-76
2023/09/19 03:16:05;;;;;;;2.72;1.40;;;;;;;18.95;69.66;98610.84;5146791;28;20062;-75
2023/09/19 03:18:32;;;;;;;3.17;1.30;;;;;;;18.96;69.35;98620.56;5146339;28;20330;-75
2023/09/19 03:21:00;;;;;;;1.90;1.20;;;;;;;18.87;69.56;98614.28;5147010;28;20054;-75
2023/09/19 03:23:28;;;;;;;2.00;1.23;;;;;;;18.69;69.54;98590.16;5146677;28;20118;-75
2023/09/19 03:25:55;;;;;;;2.20;1.40;;;;;;;18.77;69.89;98622.44;5145568;28;20050;-75
2023/09/19 03:28:24;;;;;;;2.75;1.52;;;;;;;18.83;69.52;98623.66;5145332;28;20043;-75
2023/09/19 03:31:02;;;;;;;2.33;1.35;;;;;;;18.67;69.93;98602.88;5146568;27;20114;-75
2023/09/19 03:33:31;;;;;;;2.53;1.48;;;;;;;18.91;69.29;98624.56;5146436;28;20046;-75
2023/09/19 03:35:58;;;;;;;3.20;1.40;;;;;;;18.84;69.93;98626.19;5146955;27;20237;-75
2023/09/19 03:38:25;;;;;;;2.60;1.70;;;;;;;18.90;69.33;98630.94;5145600;28;20118;-75
2023/09/19 03:40:52;;;;;;;2.25;1.33;;;;;;;18.81;70.32;98631.03;5146345;28;20046;-75
2023/09/19 03:43:19;;;;;;;1.90;1.15;;;;;;;18.55;70.22;98596.91;5145728;28;20047;-75
2023/09/19 03:45:48;;;;;;;2.78;1.75;;;;;;;18.85;70.09;98627.88;5146608;27;20039;-75
2023/09/19 03:48:15;;;;;;;3.22;1.77;;;;;;;18.94;69.31;98626.09;5146578;27;20035;-75
2023/09/19 03:50:43;;;;;;;2.15;1.40;;;;;;;18.91;69.98;98632.63;5146386;27;20051;-75
2023/09/19 03:53:10;;;;;;;1.98;1.10;;;;;;;18.90;69.88;98630.09;5146446;28;20049;-75
2023/09/19 03:55:38;;;;;;;2.88;1.20;;;;;;;18.92;69.52;98628.09;5144983;28;20049;-75
2023/09/19 03:58:05;;;;;;;3.03;1.70;;;;;;;18.93;69.98;98621.72;5146449;27;20074;-75
2023/09/19 04:00:32;;;;;;;2.92;1.38;;;;;;;18.87;69.87;98631.25;5146266;28;20039;-75
2023/09/19 04:03:03;;;;;;;2.90;1.67;;;;;;;18.96;69.99;98631.31;5146312;28;20047;-75
2023/09/19 04:05:30;;;;;;;2.83;1.48;;;;;;;18.87;69.86;98631.25;5146348;27;20057;-75
2023/09/19 04:07:57;;;;;;;2.63;1.35;;;;;;;18.90;70.00;98630.94;5149767;27;20054;-75
2023/09/19 04:10:23;;;;;;;2.22;1.30;;;;;;;18.89;70.35;98656.09;5149692;27;20360;-76
2023/09/19 04:12:54;;;;;;;3.10;1.70;;;;;;;18.54;70.58;98597.91;5149670;27;20099;-76
2023/09/19 04:15:22;;;;;;;2.35;1.38;;;;;;;18.78;69.77;98650.13;5149891;27;20111;-75
2023/09/19 04:17:48;;;;;;;2.78;1.50;;;;;;;18.84;70.09;98652.19;5148565;27;20218;-75
2023/09/19 04:20:19;;;;;;;2.60;1.45;;;;;;;18.89;70.46;98655.25;5149840;27;20050;-75
2023/09/19 04:22:46;;;;;;;2.13;1.40;;;;;;;18.80;70.34;98662.41;5148608;27;20035;-76
2023/09/19 04:25:13;;;;;;;2.15;1.25;;;;;;;18.50;70.17;98617.97;5149495;27;20063;-75
2023/09/19 04:27:40;;;;;;;3.33;1.77;;;;;;;18.67;70.36;98671.81;5149932;27;20039;-76
2023/09/19 04:30:11;;;;;;;3.90;1.98;;;;;;;18.68;70.74;98679.72;5148416;27;20096;-76
2023/09/19 04:32:39;;;;;;;2.70;1.67;;;;;;;18.74;70.78;98684.47;5149307;27;20106;-76
2023/09/19 04:35:08;;;;;;;2.33;1.40;;;;;;;18.73;70.45;98676.56;5148355;27;20241;-75
2023/09/19 04:37:39;;;;;;;2.88;1.70;;;;;;;18.59;70.48;98661.84;5149183;27;20041;-76
2023/09/19 04:40:12;;;;;;;4.07;1.67;;;;;;;18.79;70.43;98700.13;5149641;27;20050;-76
2023/09/19 04:42:40;;;;;;;2.58;1.50;;;;;;;18.73;70.19;98695.38;5149341;27;20118;-75
2023/09/19 04:45:09;;;;;;;6.18;3.25;;;;;;;18.52;70.88;98711.75;5149537;27;20051;-75
2023/09/19 04:47:38;;;;;;;7.40;3.90;;;;;;;18.58;70.36;98703.94;5149508;27;20035;-75
2023/09/19 04:50:11;;;;;;;3.55;2.05;;;;;;;18.64;70.04;98699.81;5149010;27;20066;-76
2023/09/19 04:52:43;;;;;;;2.38;1.50;;;;;;;18.69;70.03;98705.56;5149114;27;20130;-75
2023/09/19 04:55:13;;;;;;;2.45;1.77;;;;;;;18.64;70.05;98705.19;5149149;27;20191;-75
2023/09/19 04:57:40;;;;;;;3.13;1.98;;;;;;;18.76;69.39;98708.47;5147874;27;20127;-75
2023/09/19 05:00:12;;;;;;;3.75;1.85;;;;;;;18.63;69.94;98718.75;5148474;27;20049;-75
2023/09/19 05:02:40;;;;;;;2.58;1.50;;;;;;;18.63;69.67;98719.59;5148965;27;20046;-75
2023/09/19 05:05:08;;;;;;;3.17;1.90;;;;;;;18.64;70.06;98729.31;5149102;27;20050;-76
2023/09/19 05:07:35;;;;;;;3.65;2.00;;;;;;;18.57;70.23;98730.94;5148860;27;20035;-75
2023/09/19 05:10:05;;;;;;;2.60;1.60;;;;;;;18.25;70.68;98678.53;5149170;27;20043;-75
2023/09/19 05:12:32;;;;;;;3.83;1.70;;;;;;;18.28;70.81;98691.66;5147305;27;20047;-75
2023/09/19 05:14:59;;;;;;;3.35;1.67;;;;;;;18.47;71.84;98738.16;5148730;27;20047;-75
2023/09/19 05:17:26;;;;;;;4.35;2.13;;;;;;;18.38;72.01;98736.38;5147728;27;20055;-76
2023/09/19 05:19:53;;;;;;;3.08;1.98;;;;;;;18.35;72.51;98733.97;5148145;27;20207;-76
2023/09/19 05:22:19;;;;;;;2.72;1.90;;;;;;;18.05;73.98;98706.44;5148894;27;20042;-76
2023/09/19 05:24:47;;;;;;;4.72;2.05;;;;;;;18.17;75.15;98739.28;5148526;27;20042;-76
2023/09/19 05:27:16;;;;;;;3.58;1.77;;;;;;;18.28;74.86;98739.94;5147320;27;20096;-75
2023/09/19 05:29:44;;;;;;;3.10;1.98;;;;;;;18.24;74.81;98740.38;5147549;27;20043;-75
2023/09/19 05:32:11;;;;;;;4.00;2.00;;;;;;;17.84;74.59;98673.66;5148341;27;20053;-75
2023/09/19 05:34:38;;;;;;;4.25;1.90;;;;;;;18.15;75.70;98734.06;5148321;27;20107;-76
2023/09/19 05:37:06;;;;;;;3.22;2.08;;;;;;;18.12;75.71;98734.34;5147970;27;20060;-76
2023/09/19 05:39:33;;;;;;;4.15;1.88;;;;;;;18.15;75.39;98735.91;5148413;27;20050;-75
2023/09/19 05:42:01;;;;;;;4.72;2.30;;;;;;;17.99;74.87;98733.84;5148189;27;20042;-75
2023/09/19 05:44:29;;;;;;;3.83;2.28;;;;;;;18.01;75.40;98733.69;5146906;27;20114;-75
2023/09/19 05:46:56;;;;;;;3.65;1.80;;;;;;;18.09;75.98;98737.34;5147956;27;20333;-75
2023/09/19 05:49:24;;;;;;;3.83;1.85;;;;;;;18.06;76.16;98734.94;5146980;27;20070;-75
2023/09/19 05:51:53;;;;;;;4.20;2.47;;;;;;;18.07;76.52;98739.31;5146623;27;20311;-75
2023/09/19 05:54:20;;;;;;;3.80;1.80;;;;;;;18.08;74.50;98749.06;5146675;27;20043;-75
2023/09/19 05:56:48;;;;;;;3.38;1.95;;;;;;;18.17;73.52;98736.59;5146688;27;20043;-76
2023/09/19 05:59:16;;;;;;;3.72;2.42;;;;;;;18.14;73.38;98731.53;5148142;27;20047;-75
2023/09/19 06:01:44;;;;;;;3.45;2.00;;;;;;;18.17;73.23;98734.75;5146585;27;20042;-76
2023/09/19 06:04:11;;;;;;;3.83;1.95;;;;;;;18.16;73.89;98742.94;5146582;27;20096;-75
2023/09/19 06:06:39;;;;;;;3.33;1.70;;;;;;;18.18;73.04;98739.13;5147773;27;20077;-76
2023/09/19 06:09:08;;;;;;;4.32;2.05;;;;;;;18.25;73.22;98742.91;5147390;27;20299;-76
2023/09/19 06:11:35;;;;;;;5.05;2.08;;;;;;;18.12;75.50;98739.72;5146692;27;20078;-76
2023/09/19 06:14:02;;;;;;;3.33;2.03;;;;;;;17.47;74.00;98622.69;5147256;27;20046;-75
2023/09/19 06:16:29;;;;;;;3.38;2.20;;;;;;;18.22;73.33;98748.56;5146172;27;20184;-76
2023/09/19 06:18:57;;;;;;;2.80;1.85;;;;;;;18.28;73.11;98741.78;5146330;27;20266;-75
2023/09/19 06:21:23;;;;;;;3.47;1.90;;;;;;;18.28;73.00;98755.19;5146873;27;20384;-76
2023/09/19 06:23:50;;;;;;;3.50;2.17;;;;;;;18.26;72.16;98768.75;5147692;27;20202;-75
2023/09/19 06:26:17;;;;;;;4.25;2.00;;;;;;;18.25;72.03;98758.16;5147213;27;20047;-76
2023/09/19 06:28:44;;;;;;;5.43;2.42;;;;;;;18.20;72.70;98765.81;5145762;27;20304;-75
2023/09/19 06:31:11;;;;;;;4.65;2.80;;;;;;;18.13;73.31;98776.28;5145867;27;20142;-75
2023/09/19 06:33:39;;;;;;;4.30;2.10;;;;;;;18.19;72.80;98770.31;5146415;27;20058;-75
2023/09/19 06:36:08;;;;;;;4.65;2.10;;;;;;;18.22;72.06;98780.75;5147007;27;20034;-75
2023/09/19 06:38:36;;;;;;;4.80;2.15;;;;;;;18.26;71.75;98776.78;5146765;27;20051;-76
2023/09/19 06:41:05;;;;;;;2.85;1.90;;;;;;;17.84;71.64;98706.66;5146297;27;20207;-75
2023/09/19 06:43:32;;;;;;;3.42;2.05;;;;;;;18.26;71.62;98790.19;5147093;27;20042;-75
2023/09/19 06:45:59;;;;;;;2.75;1.90;;;;;;;18.32;71.61;98786.09;5145872;27;20039;-76
2023/09/19 06:48:26;;;;;;;3.90;2.10;;;;;;;18.32;71.79;98793.28;5145757;27;20047;-75
2023/09/19 06:50:54;;;;;;;5.10;1.98;;;;;;;18.23;71.51;98774.41;5146425;27;20054;-75
2023/09/19 06:53:24;;;;;;;3.15;1.67;;;;;;;18.34;71.47;98799.34;5146936;27;20043;-75
2023/09/19 06:55:51;;;;;;;3.15;1.95;;;;;;;18.37;71.05;98807.09;5147272;27;20110;-76
2023/09/19 06:58:18;;;;;;;2.70;1.70;;;;;;;18.38;71.12;98801.59;5145873;28;20039;-75
2023/09/19 07:00:44;;;;;;;3.67;2.38;;;;;;;18.38;71.63;98800.75;5146245;28;20043;-75
2023/09/19 07:03:12;;;;;;;4.18;2.13;;;;;;;18.41;71.38;98805.81;5145939;28;20054;-75
2023/09/19 07:05:40;;;;;;;2.90;1.85;;;;;;;18.37;71.57;98799.06;5146950;28;20043;-75
2023/09/19 07:08:07;;;;;;;3.55;2.10;;;;;;;15.20;70.72;98286.41;5146742;28;20051;-75
2023/09/19 07:10:36;;;;;;;3.15;1.80;;;;;;;18.41;70.61;98795.94;5145746;28;20035;-76
2023/09/19 07:13:06;;;;;;;4.38;2.15;;;;;;;18.40;70.88;98802.28;5146750;27;20039;-75
2023/09/19 07:15:36;;;;;;;3.63;1.85;;;;;;;18.45;70.73;98812.59;5146715;28;20120;-75
2023/09/19 07:18:03;;;;;;;3.47;2.00;;;;;;;18.51;70.71;98809.31;5146578;27;20086;-75
2023/09/19 07:20:32;;;;;;;3.55;1.98;;;;;;;18.55;69.89;98818.78;5146389;28;20092;-75
2023/09/19 07:23:00;;;;;;;3.38;2.17;;;;;;;18.52;70.44;98832.50;5146708;28;20062;-75
2023/09/19 07:25:27;;;;;;;2.75;1.98;;;;;;;18.48;70.46;98850.69;5146590;28;20088;-75
2023/09/19 07:27:59;;;;;;;4.28;2.10;;;;;;;18.36;70.42;98798.22;5146553;28;20053;-75
2023/09/19 07:30:27;;;;;;;2.92;1.85;;;;;;;18.53;70.62;98839.56;5146276;28;20039;-76
2023/09/19 07:32:54;;;;;;;4.10;1.83;;;;;;;18.48;70.42;98837.28;5146636;28;20088;-76
2023/09/19 07:35:21;;;;;;;4.00;1.67;;;;;;;18.24;70.13;98815.47;5146493;28;20050;-75
2023/09/19 07:37:49;;;;;;;3.72;2.40;;;;;;;18.47;70.80;98849.00;5146603;28;20092;-75
2023/09/19 07:40:16;;;;;;;4.63;2.47;;;;;;;17.94;70.02;98760.25;5146575;27;20046;-75
2023/09/19 07:42:44;;;;;;;6.05;2.42;;;;;;;18.51;69.79;98852.25;5149776;27;20110;-76
2023/09/19 07:45:14;;;;;;;3.50;1.92;;;;;;;18.53;70.74;98842.25;5149213;27;20291;-76
2023/09/19 07:47:41;;;;;;;3.00;1.73;;;;;;;18.54;70.82;98846.59;5150327;27;20042;-76
2023/09/19 07:50:08;;;;;;;3.35;1.77;;;;;;;18.56;70.41;98852.69;5150327;27;20042;-76
2023/09/19 07:52:34;;;;;;;2.92;1.60;;;;;;;18.54;71.11;98868.06;5150348;27;20065;-75
2023/09/19 07:55:06;;;;;;;2.88;1.88;;;;;;;18.54;70.64;98868.06;5150029;27;20108;-75
2023/09/19 07:57:34;;;;;;;3.92;2.00;;;;;;;18.58;70.55;98875.69;5150268;27;20039;-75
2023/09/19 08:00:01;;;;;;;3.33;2.38;;;;;;;18.51;70.21;98877.22;5148702;27;20084;-75
2023/09/19 08:02:29;;;;;;;4.70;2.33;;;;;;;18.55;70.10;98872.44;5150067;27;20039;-75
2023/09/19 08:04:57;;;;;;;6.22;2.20;;;;;;;18.57;69.84;98881.19;5149724;27;20043;-75
2023/09/19 08:07:24;;;;;;;3.30;1.90;;;;;;;18.15;69.90;98801.09;5149988;27;20050;-75
2023/09/19 08:09:51;;;;;;;2.72;1.98;;;;;;;18.63;69.82;98879.78;5148797;27;20087;-75
2023/09/19 08:12:19;;;;;;;2.88;1.80;;;;;;;18.64;70.15;98881.47;5149735;27;20045;-76
2023/09/19 08:14:47;;;;;;;2.67;1.60;;;;;;;18.66;70.04;98890.22;5131759;27;20049;-75
2023/09/19 08:17:13;;;;;;;3.17;1.48;;;;;;;18.42;70.05;98853.97;5148562;27;20062;-76
2023/09/19 08:19:44;;;;;;;2.70;1.75;;;;;;;18.66;70.07;98883.00;5149785;27;20295;-75
2023/09/19 08:22:11;;;;;;;3.63;1.80;;;;;;;18.70;70.54;98876.34;5131906;27;20353;-75
2023/09/19 08:24:38;;;;;;;3.53;2.00;;;;;;;18.72;69.95;98881.56;5148489;27;20337;-75
2023/09/19 08:27:10;;;;;;;3.20;1.95;;;;;;;18.71;70.00;98894.16;5149162;27;20035;-75
2023/09/19 08:29:37;;;;;;;2.78;1.70;;;;;;;18.76;70.22;98894.56;5149303;27;20077;-74
2023/09/19 08:32:04;;;;;;;2.70;1.95;;;;;;;18.76;69.61;98901.75;5149191;27;20050;-75
2023/09/19 08:34:32;;;;;;;3.30;2.00;;;;;;;18.77;69.65;98911.50;5131841;27;20039;-75
2023/09/19 08:37:00;;;;;;;3.80;1.90;;;;;;;18.80;69.77;98930.00;5149348;27;20073;-75
2023/09/19 08:39:27;;;;;;;2.80;2.00;;;;;;;18.77;69.14;98915.03;5148182;27;20039;-75
2023/09/19 08:41:58;;;;;;;3.90;2.17;;;;;;;18.79;69.19;98914.88;5149268;27;20046;-75
2023/09/19 08:44:25;;;;;;;2.97;1.90;;;;;;;18.78;69.25;98926.63;5148364;27;20043;-75
2023/09/19 08:46:56;;;;;;;3.55;2.08;;;;;;;18.82;69.76;98911.91;5148053;27;20047;-74
2023/09/19 08:49:34;;;;;;;4.30;2.05;;;;;;;18.80;69.04;98991.75;5148967;27;20095;-75
2023/09/19 08:52:11;;;;;;;3.47;2.17;;;;;;;17.90;69.10;98765.06;5148682;27;20051;-75
2023/09/19 08:54:41;;;;;;;9.38;2.42;;;;;;;18.80;68.93;98938.06;5148959;27;20055;-75
2023/09/19 08:57:10;;;;;;;3.15;2.00;;;;;;;18.79;69.50;98925.63;5149150;27;20047;-75
2023/09/19 08:59:39;;;;;;;3.58;2.10;;;;;;;18.48;69.34;98888.25;5134485;27;20295;-75
2023/09/19 09:02:12;;;;;;;3.25;2.05;;;;;;;18.80;68.98;98938.91;5148659;27;20233;-75
2023/09/19 09:04:41;;;;;;;3.33;1.73;;;;;;;18.78;69.02;98922.09;5148757;27;20066;-75
2023/09/19 09:07:12;;;;;;;2.83;2.05;;;;;;;18.64;68.91;98909.16;5148772;27;20035;-75
2023/09/19 09:09:42;;;;;;;3.08;1.98;;;;;;;18.82;68.79;98934.22;5147876;27;20039;-75
2023/09/19 09:12:12;;;;;;;4.95;2.20;;;;;;;18.65;69.01;98910.84;5148664;27;20119;-75
2023/09/19 09:14:39;;;;;;;4.03;1.85;;;;;;;18.79;68.55;98942.56;5148373;27;20072;-75
2023/09/19 09:17:05;;;;;;;3.47;2.03;;;;;;;18.80;69.21;98938.91;5148004;27;20058;-74
2023/09/19 09:19:32;;;;;;;4.95;2.10;;;;;;;18.65;68.82;98908.16;5148716;27;20191;-75
2023/09/19 09:22:08;;;;;;;3.65;2.10;;;;;;;18.82;68.70;98944.13;5147841;27;20043;-75
2023/09/19 09:24:37;;;;;;;3.08;1.88;;;;;;;18.80;68.67;98944.28;5148120;27;20039;-75
2023/09/19 09:27:08;;;;;;;3.60;2.13;;;;;;;18.81;68.06;98939.75;5148423;27;20043;-75
2023/09/19 09:29:46;;;;;;;2.80;1.90;;;;;;;18.86;68.50;98938.31;5147105;27;20050;-75
2023/09/19 09:32:21;;;;;;;4.60;2.30;;;;;;;18.87;68.01;98936.47;5148084;27;20047;-76
2023/09/19 09:34:52;;;;;;;5.75;2.20;;;;;;;18.89;68.29;98950.59;5148206;27;20088;-75
2023/09/19 09:37:20;;;;;;;4.00;2.72;;;;;;;16.49;68.10;98550.66;5148487;27;20047;-75
2023/09/19 09:39:53;;;;;;;3.88;1.98;;;;;;;18.96;68.64;98940.13;5153667;27;20069;-75
2023/09/19 09:42:35;;;;;;;3.92;2.28;;;;;;;19.02;69.01;98947.56;5149335;27;20047;-75
2023/09/19 09:45:15;;;;;;;3.15;1.92;;;;;;;19.04;68.26;98954.50;5148527;27;20214;-74
2023/09/19 09:47:49;;;;;;;3.10;2.08;;;;;;;19.06;67.54;98943.59;5148773;27;20039;-75
2023/09/19 09:50:29;;;;;;;3.20;2.10;;;;;;;18.62;67.44;98921.03;5148508;27;20043;-75
2023/09/19 09:53:03;;;;;;;5.68;2.25;;;;;;;19.22;67.77;98958.09;5148226;27;20066;-75
2023/09/19 09:55:58;;;;;;;2.65;1.73;;;;;;;19.36;67.27;98946.00;5147185;27;20065;-75
2023/09/19 09:58:28;;;;;;;4.32;1.80;;;;;;;19.39;66.89;98944.88;5147542;27;20047;-75
2023/09/19 10:01:03;;;;;;;3.15;2.08;;;;;;;19.40;66.41;98957.31;5146689;27;20113;-75
2023/09/19 10:03:39;;;;;;;3.63;1.98;;;;;;;19.45;66.04;98955.88;5146547;27;20047;-75
2023/09/19 10:06:24;;;;;;;3.60;2.00;;;;;;;18.99;65.90;98870.84;5147147;27;20035;-75
2023/09/19 10:11:54;;;;;;;;;;;;;;;19.55;65.79;98955.81;5147652;27;20039;-74
2023/09/19 10:14:23;;;;;;;3.03;2.00;;;;;;;19.60;65.68;98955.34;5146625;27;20123;-74
2023/09/19 10:16:50;;;;;;;3.90;1.95;;;;;;;19.66;65.13;98949.38;5147540;27;20059;-75
2023/09/19 10:19:24;;;;;;;4.07;1.73;;;;;;;19.71;64.89;98957.84;5147669;27;20035;-75
2023/09/19 10:21:52;;;;;;;4.50;2.50;;;;;;;19.75;64.88;98946.63;5147487;27;20065;-76
2023/09/19 10:24:20;;;;;;;2.95;1.90;;;;;;;19.76;64.68;98948.31;5146922;27;20349;-75
2023/09/19 10:26:50;;;;;;;7.05;1.75;;;;;;;19.84;64.98;98939.50;5147632;27;20049;-75
2023/09/19 10:29:19;;;;;;;3.88;2.20;;;;;;;19.93;64.52;98946.66;5147271;27;20057;-75
2023/09/19 10:31:50;;;;;;;3.30;2.10;;;;;;;20.02;64.14;98934.97;5146831;27;20039;-75
2023/09/19 10:34:19;;;;;;;3.00;2.10;;;;;;;20.13;63.41;98931.19;5147511;27;20042;-75
2023/09/19 10:36:47;;;;;;;3.72;1.88;;;;;;;20.26;63.80;98937.06;5147681;27;20054;-75
2023/09/19 10:39:19;;;;;;;6.25;2.38;;;;;;;19.71;63.73;98844.91;5146453;27;20069;-75
2023/09/19 10:41:58;;;;;;;3.00;1.95;;;;;;;20.33;63.32;98930.06;5147289;27;20047;-76
2023/09/19 10:44:28;;;;;;;4.97;1.92;;;;;;;20.46;63.58;98937.72;5146959;27;20039;-76
2023/09/19 10:46:55;;;;;;;3.75;2.20;;;;;;;20.53;62.36;98936.06;5147050;27;20047;-76
2023/09/19 10:49:22;;;;;;;2.95;1.90;;;;;;;20.63;62.46;98928.75;5146031;27;20321;-77
2023/09/19 10:51:55;;;;;;;7.05;2.80;;;;;;;20.70;63.21;98942.41;5147609;27;20291;-76
2023/09/19 10:54:26;;;;;;;6.20;2.17;;;;;;;20.79;62.43;98941.47;5147320;27;20113;-76
2023/09/19 10:56:58;;;;;;;3.78;2.22;;;;;;;20.92;61.53;98941.88;5147390;27;20077;-76
2023/09/19 10:59:27;;;;;;;3.40;2.35;;;;;;;20.70;61.27;98886.72;5146745;27;20100;-77
2023/09/19 11:01:57;;;;;;;3.60;2.50;;;;;;;21.13;60.58;98926.19;5146728;28;20082;-76
2023/09/19 11:04:26;;;;;;;5.05;2.40;;;;;;;20.89;60.51;98858.69;5146893;28;20118;-76
2023/09/19 11:07:11;;;;;;;3.83;2.05;;;;;;;20.51;60.51;98841.19;5146157;28;20292;-76
2023/09/19 11:09:51;;;;;;;9.95;2.25;;;;;;;21.21;60.06;98955.00;5146000;28;20032;-76
2023/09/19 11:12:58;;;;;;;3.22;1.80;;;;;;;20.90;59.39;98860.38;5147169;28;20119;-76
2023/09/19 11:16:13;;;;;;;3.50;1.90;;;;;;;21.32;58.91;98927.75;5132300;27;20043;-76
2023/09/19 11:18:54;;;;;;;3.05;1.95;;;;;;;21.28;58.64;98931.78;5151450;27;20043;-77
2023/09/19 11:21:54;;;;;;;3.28;1.95;;;;;;;21.34;57.89;98938.38;5151319;27;20043;-75
2023/09/19 11:24:36;;;;;;;2.83;1.90;;;;;;;20.61;58.11;98833.81;5151281;27;20047;-77
2023/09/19 11:27:17;;;;;;;2.85;1.85;;;;;;;20.59;57.83;98832.31;5149374;27;20035;-77
2023/09/19 11:29:46;;;;;;;3.22;2.10;;;;;;;20.52;57.49;98804.34;5153230;27;20307;-78
2023/09/19 11:32:17;;;;;;;2.80;1.77;;;;;;;21.26;57.79;98936.50;5154473;27;20337;-77
2023/09/19 11:34:51;;;;;;;2.78;1.77;;;;;;;21.22;57.86;98918.97;5152751;27;20046;-77
2023/09/19 11:38:07;;;;;;;3.05;1.95;;;;;;;21.25;57.95;98915.09;5153190;27;20120;-77
2023/09/19 11:40:35;;;;;;;3.05;2.00;;;;;;;21.30;57.85;98926.25;5152579;27;20075;-77
2023/09/19 11:43:35;;;;;;;3.13;1.60;;;;;;;20.94;57.38;98828.56;5153268;27;20043;-77
2023/09/19 11:46:05;;;;;;;3.40;1.95;;;;;;;21.35;57.01;98894.25;5154562;27;20096;-77
2023/09/19 11:48:33;;;;;;;2.63;1.70;;;;;;;21.58;56.88;98902.56;5152010;27;20045;-77
2023/09/19 11:51:06;;;;;;;2.60;1.65;;;;;;;21.40;56.41;98871.19;5152170;27;20248;-77